Sign-in with your pilot id or email, or register

ICAO: LRCL Name / Country: Cluj/Napoca / Romania
Latitude: 46.7852 Longitude: 23.6862
Total Arrivals:
Strict Standards: Non-static method AirportData::getarrflights() should not be called statically, assuming $this from incompatible context in /var/www/customers/vh-7192/web/home/phpvms/core/templates/airport_info.tpl on line 18
2
Total Departures:
Strict Standards: Non-static method AirportData::getdeptflights() should not be called statically, assuming $this from incompatible context in /var/www/customers/vh-7192/web/home/phpvms/core/templates/airport_info.tpl on line 21
5
Latest Arrival: MTA11P (LHBP-LRCL) Tibor Berces Latest Departure: MTA1CL (LRCL-LHBP) Tibor Berces
Metar: LRCL 220600Z 00000KT 4000 BR NSC 06/05 Q1025
More info

Charts for LRCL


NOTAM


Warning: file_get_contents(http://api.vateud.net/notams/LRCL.json): failed to open stream: Redirection limit reached, aborting in /var/www/customers/vh-7192/web/home/phpvms/core/common/NOTAMSData.class.php on line 18

Warning: Invalid argument supplied for foreach() in /var/www/customers/vh-7192/web/home/phpvms/core/common/NOTAMSData.class.php on line 22

Cluj/Napoca